sensor_id;sensor_type;location;lat;lon;timestamp;temperature;humidity
18335;DHT22;9293;49.524;10.964;2022-11-20T00:01:32;1.10;99.90
18335;DHT22;9293;49.524;10.964;2022-11-20T00:04:00;1.10;99.90
18335;DHT22;9293;49.524;10.964;2022-11-20T00:06:28;1.10;99.90
18335;DHT22;9293;49.524;10.964;2022-11-20T00:08:59;1.10;99.90
18335;DHT22;9293;49.524;10.964;2022-11-20T00:11:29;1.10;99.90
18335;DHT22;9293;49.524;10.964;2022-11-20T00:14:04;1.20;99.90
18335;DHT22;9293;49.524;10.964;2022-11-20T00:16:33;1.20;99.90
18335;DHT22;9293;49.524;10.964;2022-11-20T00:19:01;1.20;99.90
18335;DHT22;9293;49.524;10.964;2022-11-20T00:21:29;1.20;99.90
18335;DHT22;9293;49.524;10.964;2022-11-20T00:23:58;1.20;99.90
18335;DHT22;9293;49.524;10.964;2022-11-20T00:26:27;1.20;99.90
18335;DHT22;9293;49.524;10.964;2022-11-20T00:28:57;1.20;99.90
18335;DHT22;9293;49.524;10.964;2022-11-20T00:31:26;1.20;99.90
18335;DHT22;9293;49.524;10.964;2022-11-20T00:33:55;1.20;99.90
18335;DHT22;9293;49.524;10.964;2022-11-20T00:36:25;1.20;99.90
18335;DHT22;9293;49.524;10.964;2022-11-20T00:38:57;1.20;99.90
18335;DHT22;9293;49.524;10.964;2022-11-20T00:41:27;1.20;99.90
18335;DHT22;9293;49.524;10.964;2022-11-20T00:43:56;1.20;99.90
18335;DHT22;9293;49.524;10.964;2022-11-20T00:46:26;1.20;99.90
18335;DHT22;9293;49.524;10.964;2022-11-20T00:48:54;1.30;99.90
18335;DHT22;9293;49.524;10.964;2022-11-20T00:51:25;1.30;99.90
18335;DHT22;9293;49.524;10.964;2022-11-20T00:53:57;1.30;99.90
18335;DHT22;9293;49.524;10.964;2022-11-20T00:56:25;1.30;99.90
18335;DHT22;9293;49.524;10.964;2022-11-20T00:58:53;1.40;99.90
18335;DHT22;9293;49.524;10.964;2022-11-20T01:01:24;1.30;99.90
18335;DHT22;9293;49.524;10.964;2022-11-20T01:03:54;1.30;99.90
18335;DHT22;9293;49.524;10.964;2022-11-20T01:06:24;1.30;99.90
18335;DHT22;9293;49.524;10.964;2022-11-20T01:08:55;1.30;99.90
18335;DHT22;9293;49.524;10.964;2022-11-20T01:11:26;1.30;99.90
18335;DHT22;9293;49.524;10.964;2022-11-20T01:14:06;1.40;99.90
18335;DHT22;9293;49.524;10.964;2022-11-20T01:16:37;1.40;99.90
18335;DHT22;9293;49.524;10.964;2022-11-20T01:19:09;1.40;99.90
18335;DHT22;9293;49.524;10.964;2022-11-20T01:21:44;1.40;99.90
18335;DHT22;9293;49.524;10.964;2022-11-20T01:24:14;1.40;99.90
18335;DHT22;9293;49.524;10.964;2022-11-20T01:26:44;1.40;99.90
18335;DHT22;9293;49.524;10.964;2022-11-20T01:29:18;1.40;99.90
18335;DHT22;9293;49.524;10.964;2022-11-20T01:31:46;1.40;99.90
18335;DHT22;9293;49.524;10.964;2022-11-20T01:34:17;1.40;99.90
18335;DHT22;9293;49.524;10.964;2022-11-20T01:36:46;1.40;99.90
18335;DHT22;9293;49.524;10.964;2022-11-20T01:39:16;1.40;99.90
18335;DHT22;9293;49.524;10.964;2022-11-20T01:41:46;1.40;99.90
18335;DHT22;9293;49.524;10.964;2022-11-20T01:47:30;1.40;99.90
18335;DHT22;9293;49.524;10.964;2022-11-20T01:53:09;1.40;99.90
18335;DHT22;9293;49.524;10.964;2022-11-20T01:55:51;1.40;99.90
18335;DHT22;9293;49.524;10.964;2022-11-20T01:58:24;1.40;99.90
18335;DHT22;9293;49.524;10.964;2022-11-20T02:00:55;1.40;99.90
18335;DHT22;9293;49.524;10.964;2022-11-20T02:03:23;1.50;99.90
18335;DHT22;9293;49.524;10.964;2022-11-20T02:05:53;1.40;99.90
18335;DHT22;9293;49.524;10.964;2022-11-20T02:08:23;1.50;99.90
18335;DHT22;9293;49.524;10.964;2022-11-20T02:10:51;1.40;99.90
18335;DHT22;9293;49.524;10.964;2022-11-20T02:13:19;1.40;99.90
18335;DHT22;9293;49.524;10.964;2022-11-20T02:16:33;1.40;99.90
18335;DHT22;9293;49.524;10.964;2022-11-20T02:19:02;1.40;99.90
18335;DHT22;9293;49.524;10.964;2022-11-20T02:24:18;1.50;99.90
18335;DHT22;9293;49.524;10.964;2022-11-20T02:29:27;1.50;99.90
18335;DHT22;9293;49.524;10.964;2022-11-20T02:31:56;1.40;99.90
18335;DHT22;9293;49.524;10.964;2022-11-20T02:34:25;1.40;99.90
18335;DHT22;9293;49.524;10.964;2022-11-20T02:36:53;1.30;99.90
18335;DHT22;9293;49.524;10.964;2022-11-20T02:39:23;1.30;99.90
18335;DHT22;9293;49.524;10.964;2022-11-20T02:41:53;1.30;99.90
18335;DHT22;9293;49.524;10.964;2022-11-20T02:44:21;1.30;99.90
18335;DHT22;9293;49.524;10.964;2022-11-20T02:46:49;1.30;99.90
18335;DHT22;9293;49.524;10.964;2022-11-20T02:49:17;1.30;99.90
18335;DHT22;9293;49.524;10.964;2022-11-20T02:51:46;1.20;99.90
18335;DHT22;9293;49.524;10.964;2022-11-20T02:54:14;1.20;99.90
18335;DHT22;9293;49.524;10.964;2022-11-20T02:56:42;1.30;99.90
18335;DHT22;9293;49.524;10.964;2022-11-20T02:59:10;1.30;99.90
18335;DHT22;9293;49.524;10.964;2022-11-20T03:01:38;1.30;99.90
18335;DHT22;9293;49.524;10.964;2022-11-20T03:04:06;1.20;99.90
18335;DHT22;9293;49.524;10.964;2022-11-20T03:06:34;1.20;99.90
18335;DHT22;9293;49.524;10.964;2022-11-20T03:09:02;1.20;99.90
18335;DHT22;9293;49.524;10.964;2022-11-20T03:11:30;1.10;99.90
18335;DHT22;9293;49.524;10.964;2022-11-20T03:14:02;1.10;99.90
18335;DHT22;9293;49.524;10.964;2022-11-20T03:16:32;1.10;99.90
18335;DHT22;9293;49.524;10.964;2022-11-20T03:19:03;1.10;99.90
18335;DHT22;9293;49.524;10.964;2022-11-20T03:21:33;1.10;99.90
18335;DHT22;9293;49.524;10.964;2022-11-20T03:24:01;1.10;99.90
18335;DHT22;9293;49.524;10.964;2022-11-20T03:26:30;1.20;99.90
18335;DHT22;9293;49.524;10.964;2022-11-20T03:29:00;1.20;99.90
18335;DHT22;9293;49.524;10.964;2022-11-20T03:31:36;1.30;99.90
18335;DHT22;9293;49.524;10.964;2022-11-20T03:34:04;1.20;99.90
18335;DHT22;9293;49.524;10.964;2022-11-20T03:36:33;1.20;99.90
18335;DHT22;9293;49.524;10.964;2022-11-20T03:39:01;1.30;99.90
18335;DHT22;9293;49.524;10.964;2022-11-20T03:41:30;1.20;99.90
18335;DHT22;9293;49.524;10.964;2022-11-20T03:44:00;1.30;99.90
18335;DHT22;9293;49.524;10.964;2022-11-20T03:46:29;1.30;99.90
18335;DHT22;9293;49.524;10.964;2022-11-20T03:48:57;1.30;99.90
18335;DHT22;9293;49.524;10.964;2022-11-20T03:51:30;1.30;99.90
18335;DHT22;9293;49.524;10.964;2022-11-20T03:54:01;1.30;99.90
18335;DHT22;9293;49.524;10.964;2022-11-20T03:56:31;1.30;99.90
18335;DHT22;9293;49.524;10.964;2022-11-20T03:59:00;1.30;99.90
18335;DHT22;9293;49.524;10.964;2022-11-20T04:01:32;1.30;99.90
18335;DHT22;9293;49.524;10.964;2022-11-20T04:04:00;1.20;99.90
18335;DHT22;9293;49.524;10.964;2022-11-20T04:06:32;1.20;99.90
18335;DHT22;9293;49.524;10.964;2022-11-20T04:09:01;1.30;99.90
18335;DHT22;9293;49.524;10.964;2022-11-20T04:11:31;1.30;99.90
18335;DHT22;9293;49.524;10.964;2022-11-20T04:14:00;1.30;99.90
18335;DHT22;9293;49.524;10.964;2022-11-20T04:16:33;1.30;99.90
18335;DHT22;9293;49.524;10.964;2022-11-20T04:19:11;1.30;99.90
18335;DHT22;9293;49.524;10.964;2022-11-20T04:21:39;1.30;99.90
18335;DHT22;9293;49.524;10.964;2022-11-20T04:24:07;1.30;99.90
18335;DHT22;9293;49.524;10.964;2022-11-20T04:26:35;1.30;99.90
18335;DHT22;9293;49.524;10.964;2022-11-20T04:29:04;1.40;99.90
18335;DHT22;9293;49.524;10.964;2022-11-20T04:31:34;1.30;99.90
18335;DHT22;9293;49.524;10.964;2022-11-20T04:34:04;1.30;99.90
18335;DHT22;9293;49.524;10.964;2022-11-20T04:36:32;1.40;99.90
18335;DHT22;9293;49.524;10.964;2022-11-20T04:39:05;1.30;99.90
18335;DHT22;9293;49.524;10.964;2022-11-20T04:41:35;1.40;99.90
18335;DHT22;9293;49.524;10.964;2022-11-20T04:44:05;1.40;99.90
18335;DHT22;9293;49.524;10.964;2022-11-20T04:46:41;1.30;99.90
18335;DHT22;9293;49.524;10.964;2022-11-20T04:49:10;1.30;99.90
18335;DHT22;9293;49.524;10.964;2022-11-20T04:51:39;1.30;99.90
18335;DHT22;9293;49.524;10.964;2022-11-20T04:54:07;1.30;99.90
18335;DHT22;9293;49.524;10.964;2022-11-20T04:56:35;1.30;99.90
18335;DHT22;9293;49.524;10.964;2022-11-20T04:59:03;1.30;99.90
18335;DHT22;9293;49.524;10.964;2022-11-20T05:01:31;1.30;99.90
18335;DHT22;9293;49.524;10.964;2022-11-20T05:04:00;1.30;99.90
18335;DHT22;9293;49.524;10.964;2022-11-20T05:06:28;1.30;99.90
18335;DHT22;9293;49.524;10.964;2022-11-20T05:08:56;1.30;99.90
18335;DHT22;9293;49.524;10.964;2022-11-20T05:11:24;1.30;99.90
18335;DHT22;9293;49.524;10.964;2022-11-20T05:13:52;1.30;99.90
18335;DHT22;9293;49.524;10.964;2022-11-20T05:16:24;1.40;99.90
18335;DHT22;9293;49.524;10.964;2022-11-20T05:18:53;1.30;99.90
18335;DHT22;9293;49.524;10.964;2022-11-20T05:21:22;1.40;99.90
18335;DHT22;9293;49.524;10.964;2022-11-20T05:23:53;1.40;99.90
18335;DHT22;9293;49.524;10.964;2022-11-20T05:26:25;1.40;99.90
18335;DHT22;9293;49.524;10.964;2022-11-20T05:28:53;1.40;99.90
18335;DHT22;9293;49.524;10.964;2022-11-20T05:31:23;1.40;99.90
18335;DHT22;9293;49.524;10.964;2022-11-20T05:33:54;1.40;99.90
18335;DHT22;9293;49.524;10.964;2022-11-20T05:36:23;1.40;99.90
18335;DHT22;9293;49.524;10.964;2022-11-20T05:38:51;1.40;99.90
18335;DHT22;9293;49.524;10.964;2022-11-20T05:41:27;1.40;99.90
18335;DHT22;9293;49.524;10.964;2022-11-20T05:43:55;1.40;99.90
18335;DHT22;9293;49.524;10.964;2022-11-20T05:46:23;1.40;99.90
18335;DHT22;9293;49.524;10.964;2022-11-20T05:48:55;1.40;99.90
18335;DHT22;9293;49.524;10.964;2022-11-20T05:51:24;1.40;99.90
18335;DHT22;9293;49.524;10.964;2022-11-20T05:53:53;1.40;99.90
18335;DHT22;9293;49.524;10.964;2022-11-20T05:56:23;1.40;99.90
18335;DHT22;9293;49.524;10.964;2022-11-20T05:58:51;1.50;99.90
18335;DHT22;9293;49.524;10.964;2022-11-20T06:01:24;1.50;99.90
18335;DHT22;9293;49.524;10.964;2022-11-20T06:03:53;1.50;99.90
18335;DHT22;9293;49.524;10.964;2022-11-20T06:06:21;1.50;99.90
18335;DHT22;9293;49.524;10.964;2022-11-20T06:08:49;1.50;99.90
18335;DHT22;9293;49.524;10.964;2022-11-20T06:11:18;1.50;99.90
18335;DHT22;9293;49.524;10.964;2022-11-20T06:13:46;1.40;99.90
18335;DHT22;9293;49.524;10.964;2022-11-20T06:16:16;1.40;99.90
18335;DHT22;9293;49.524;10.964;2022-11-20T06:18:45;1.50;99.90
18335;DHT22;9293;49.524;10.964;2022-11-20T06:21:19;1.50;99.90
18335;DHT22;9293;49.524;10.964;2022-11-20T06:23:49;1.50;99.90
18335;DHT22;9293;49.524;10.964;2022-11-20T06:26:19;1.40;99.90
18335;DHT22;9293;49.524;10.964;2022-11-20T06:28:50;1.50;99.90
18335;DHT22;9293;49.524;10.964;2022-11-20T06:31:23;1.50;99.90
18335;DHT22;9293;49.524;10.964;2022-11-20T06:33:52;1.50;99.90
18335;DHT22;9293;49.524;10.964;2022-11-20T06:36:22;1.50;99.90
18335;DHT22;9293;49.524;10.964;2022-11-20T06:38:50;1.50;99.90
18335;DHT22;9293;49.524;10.964;2022-11-20T06:41:20;1.50;99.90
18335;DHT22;9293;49.524;10.964;2022-11-20T06:43:48;1.50;99.90
18335;DHT22;9293;49.524;10.964;2022-11-20T06:46:17;1.50;99.90
18335;DHT22;9293;49.524;10.964;2022-11-20T06:48:47;1.50;99.90
18335;DHT22;9293;49.524;10.964;2022-11-20T06:51:16;1.50;99.90
18335;DHT22;9293;49.524;10.964;2022-11-20T06:53:44;1.60;99.90
18335;DHT22;9293;49.524;10.964;2022-11-20T06:56:13;1.60;99.90
18335;DHT22;9293;49.524;10.964;2022-11-20T06:58:41;1.60;99.90
18335;DHT22;9293;49.524;10.964;2022-11-20T07:01:10;1.60;99.90
18335;DHT22;9293;49.524;10.964;2022-11-20T07:03:39;1.60;99.90
18335;DHT22;9293;49.524;10.964;2022-11-20T07:06:08;1.60;99.90
18335;DHT22;9293;49.524;10.964;2022-11-20T07:08:36;1.60;99.90
18335;DHT22;9293;49.524;10.964;2022-11-20T07:11:06;1.60;99.90
18335;DHT22;9293;49.524;10.964;2022-11-20T07:13:34;1.60;99.90
18335;DHT22;9293;49.524;10.964;2022-11-20T07:16:05;1.70;99.90
18335;DHT22;9293;49.524;10.964;2022-11-20T07:18:34;1.70;99.90
18335;DHT22;9293;49.524;10.964;2022-11-20T07:21:08;1.70;99.90
18335;DHT22;9293;49.524;10.964;2022-11-20T07:23:37;1.70;99.90
18335;DHT22;9293;49.524;10.964;2022-11-20T07:26:09;1.70;99.90
18335;DHT22;9293;49.524;10.964;2022-11-20T07:28:38;1.70;99.90
18335;DHT22;9293;49.524;10.964;2022-11-20T07:31:06;1.70;99.90
18335;DHT22;9293;49.524;10.964;2022-11-20T07:33:38;1.70;99.90
18335;DHT22;9293;49.524;10.964;2022-11-20T07:36:07;1.70;99.90
18335;DHT22;9293;49.524;10.964;2022-11-20T07:38:35;1.70;99.90
18335;DHT22;9293;49.524;10.964;2022-11-20T07:41:06;1.80;99.90
18335;DHT22;9293;49.524;10.964;2022-11-20T07:43:38;1.90;99.90
18335;DHT22;9293;49.524;10.964;2022-11-20T07:46:07;1.90;99.90
18335;DHT22;9293;49.524;10.964;2022-11-20T07:48:35;2.00;99.90
18335;DHT22;9293;49.524;10.964;2022-11-20T07:51:03;2.00;99.90
18335;DHT22;9293;49.524;10.964;2022-11-20T07:53:31;2.00;99.90
18335;DHT22;9293;49.524;10.964;2022-11-20T07:56:00;2.00;99.90
18335;DHT22;9293;49.524;10.964;2022-11-20T07:58:29;2.00;99.90
18335;DHT22;9293;49.524;10.964;2022-11-20T08:00:57;2.00;99.90
18335;DHT22;9293;49.524;10.964;2022-11-20T08:03:25;2.10;99.90
18335;DHT22;9293;49.524;10.964;2022-11-20T08:05:53;2.10;99.90
18335;DHT22;9293;49.524;10.964;2022-11-20T08:08:21;2.10;99.90
18335;DHT22;9293;49.524;10.964;2022-11-20T08:10:50;2.10;99.90
18335;DHT22;9293;49.524;10.964;2022-11-20T08:13:18;2.10;99.90
18335;DHT22;9293;49.524;10.964;2022-11-20T08:16:04;2.10;99.90
18335;DHT22;9293;49.524;10.964;2022-11-20T08:18:32;2.10;99.90
18335;DHT22;9293;49.524;10.964;2022-11-20T08:21:03;2.10;99.90
18335;DHT22;9293;49.524;10.964;2022-11-20T08:23:31;2.20;99.90
18335;DHT22;9293;49.524;10.964;2022-11-20T08:25:59;2.20;99.90
18335;DHT22;9293;49.524;10.964;2022-11-20T08:28:27;2.10;99.90
18335;DHT22;9293;49.524;10.964;2022-11-20T08:31:02;2.20;99.90
18335;DHT22;9293;49.524;10.964;2022-11-20T08:33:30;2.20;99.90
18335;DHT22;9293;49.524;10.964;2022-11-20T08:36:04;2.20;99.90
18335;DHT22;9293;49.524;10.964;2022-11-20T08:38:32;2.20;99.90
18335;DHT22;9293;49.524;10.964;2022-11-20T08:41:02;2.10;99.90
18335;DHT22;9293;49.524;10.964;2022-11-20T08:44:06;2.20;99.90
18335;DHT22;9293;49.524;10.964;2022-11-20T08:46:39;2.20;99.90
18335;DHT22;9293;49.524;10.964;2022-11-20T08:49:10;2.20;99.90
18335;DHT22;9293;49.524;10.964;2022-11-20T08:51:43;2.20;99.90
18335;DHT22;9293;49.524;10.964;2022-11-20T08:54:12;2.20;99.90
18335;DHT22;9293;49.524;10.964;2022-11-20T08:56:41;2.30;99.90
18335;DHT22;9293;49.524;10.964;2022-11-20T08:59:09;2.30;99.90
18335;DHT22;9293;49.524;10.964;2022-11-20T09:01:56;2.30;99.90
18335;DHT22;9293;49.524;10.964;2022-11-20T09:04:28;2.30;99.90
18335;DHT22;9293;49.524;10.964;2022-11-20T09:06:56;2.30;99.90
18335;DHT22;9293;49.524;10.964;2022-11-20T09:09:25;2.40;99.90
18335;DHT22;9293;49.524;10.964;2022-11-20T09:11:53;2.40;99.90
18335;DHT22;9293;49.524;10.964;2022-11-20T09:14:21;2.40;99.90
18335;DHT22;9293;49.524;10.964;2022-11-20T09:16:49;2.40;99.90
18335;DHT22;9293;49.524;10.964;2022-11-20T09:19:17;2.50;99.90
18335;DHT22;9293;49.524;10.964;2022-11-20T09:22:02;2.50;99.90
18335;DHT22;9293;49.524;10.964;2022-11-20T09:24:30;2.50;99.90
18335;DHT22;9293;49.524;10.964;2022-11-20T09:27:00;2.40;99.90
18335;DHT22;9293;49.524;10.964;2022-11-20T09:29:28;2.30;99.90
18335;DHT22;9293;49.524;10.964;2022-11-20T09:31:56;2.30;99.90
18335;DHT22;9293;49.524;10.964;2022-11-20T09:34:24;2.40;99.90
18335;DHT22;9293;49.524;10.964;2022-11-20T09:36:52;2.40;99.90
18335;DHT22;9293;49.524;10.964;2022-11-20T09:39:20;2.40;99.90
18335;DHT22;9293;49.524;10.964;2022-11-20T09:45:09;2.40;99.90
18335;DHT22;9293;49.524;10.964;2022-11-20T09:48:04;2.40;99.90
18335;DHT22;9293;49.524;10.964;2022-11-20T09:53:36;2.50;99.90
18335;DHT22;9293;49.524;10.964;2022-11-20T09:56:09;2.40;99.90
18335;DHT22;9293;49.524;10.964;2022-11-20T10:01:10;2.60;99.90
18335;DHT22;9293;49.524;10.964;2022-11-20T10:06:32;2.70;99.90
18335;DHT22;9293;49.524;10.964;2022-11-20T10:09:49;2.70;99.90
18335;DHT22;9293;49.524;10.964;2022-11-20T10:12:06;2.70;99.90
18335;DHT22;9293;49.524;10.964;2022-11-20T10:14:58;2.80;99.90
18335;DHT22;9293;49.524;10.964;2022-11-20T10:20:29;2.80;99.90
18335;DHT22;9293;49.524;10.964;2022-11-20T10:28:53;2.70;99.90
18335;DHT22;9293;49.524;10.964;2022-11-20T10:31:32;2.70;99.90
18335;DHT22;9293;49.524;10.964;2022-11-20T10:34:59;2.70;99.90
18335;DHT22;9293;49.524;10.964;2022-11-20T10:37:25;2.70;99.90
18335;DHT22;9293;49.524;10.964;2022-11-20T10:39:58;2.70;99.90
18335;DHT22;9293;49.524;10.964;2022-11-20T10:42:40;2.70;99.90
18335;DHT22;9293;49.524;10.964;2022-11-20T10:48:10;2.80;99.90
18335;DHT22;9293;49.524;10.964;2022-11-20T10:54:00;2.80;99.90
18335;DHT22;9293;49.524;10.964;2022-11-20T10:56:54;2.70;99.90
18335;DHT22;9293;49.524;10.964;2022-11-20T11:04:53;2.70;99.90
18335;DHT22;9293;49.524;10.964;2022-11-20T11:07:29;2.80;99.90
18335;DHT22;9293;49.524;10.964;2022-11-20T11:09:58;2.80;99.90
18335;DHT22;9293;49.524;10.964;2022-11-20T11:12:28;2.80;99.90
18335;DHT22;9293;49.524;10.964;2022-11-20T11:14:57;2.70;99.90
18335;DHT22;9293;49.524;10.964;2022-11-20T11:17:30;2.70;99.90
18335;DHT22;9293;49.524;10.964;2022-11-20T11:20:04;2.60;99.90
18335;DHT22;9293;49.524;10.964;2022-11-20T11:22:34;2.50;99.90
18335;DHT22;9293;49.524;10.964;2022-11-20T11:25:02;2.50;99.90
18335;DHT22;9293;49.524;10.964;2022-11-20T11:27:30;2.60;99.90
18335;DHT22;9293;49.524;10.964;2022-11-20T11:30:16;2.80;99.90
18335;DHT22;9293;49.524;10.964;2022-11-20T11:32:44;3.00;99.90
18335;DHT22;9293;49.524;10.964;2022-11-20T11:35:44;3.10;99.90
18335;DHT22;9293;49.524;10.964;2022-11-20T11:38:21;3.40;99.90
18335;DHT22;9293;49.524;10.964;2022-11-20T11:40:53;3.50;99.90
18335;DHT22;9293;49.524;10.964;2022-11-20T11:43:33;3.60;99.90
18335;DHT22;9293;49.524;10.964;2022-11-20T11:54:27;3.90;99.90
18335;DHT22;9293;49.524;10.964;2022-11-20T11:57:01;4.00;99.90
18335;DHT22;9293;49.524;10.964;2022-11-20T12:00:09;4.00;99.90
18335;DHT22;9293;49.524;10.964;2022-11-20T12:08:31;3.90;99.90
18335;DHT22;9293;49.524;10.964;2022-11-20T12:11:11;3.90;99.90
18335;DHT22;9293;49.524;10.964;2022-11-20T12:16:39;3.80;99.90
18335;DHT22;9293;49.524;10.964;2022-11-20T12:19:11;3.80;99.90
18335;DHT22;9293;49.524;10.964;2022-11-20T12:30:13;3.90;99.90
18335;DHT22;9293;49.524;10.964;2022-11-20T12:42:15;4.00;99.90
18335;DHT22;9293;49.524;10.964;2022-11-20T12:45:23;4.00;99.90
18335;DHT22;9293;49.524;10.964;2022-11-20T12:50:51;4.10;99.90
18335;DHT22;9293;49.524;10.964;2022-11-20T13:08:23;3.70;99.90
18335;DHT22;9293;49.524;10.964;2022-11-20T13:16:29;3.90;99.90
18335;DHT22;9293;49.524;10.964;2022-11-20T13:19:02;4.00;99.90
18335;DHT22;9293;49.524;10.964;2022-11-20T13:21:45;4.00;99.90
18335;DHT22;9293;49.524;10.964;2022-11-20T13:24:23;3.90;99.90
18335;DHT22;9293;49.524;10.964;2022-11-20T13:29:36;4.10;99.90
18335;DHT22;9293;49.524;10.964;2022-11-20T13:32:19;4.10;99.90
18335;DHT22;9293;49.524;10.964;2022-11-20T13:34:59;4.20;99.90
18335;DHT22;9293;49.524;10.964;2022-11-20T13:43:26;4.10;99.90
18335;DHT22;9293;49.524;10.964;2022-11-20T13:45:30;4.10;99.90
18335;DHT22;9293;49.524;10.964;2022-11-20T13:48:18;3.90;99.90
18335;DHT22;9293;49.524;10.964;2022-11-20T14:01:55;3.70;99.90
18335;DHT22;9293;49.524;10.964;2022-11-20T14:04:33;3.70;99.90
18335;DHT22;9293;49.524;10.964;2022-11-20T14:07:10;3.80;99.90
18335;DHT22;9293;49.524;10.964;2022-11-20T14:09:38;3.80;99.90
18335;DHT22;9293;49.524;10.964;2022-11-20T14:12:16;3.80;99.90
18335;DHT22;9293;49.524;10.964;2022-11-20T14:14:53;3.80;99.90
18335;DHT22;9293;49.524;10.964;2022-11-20T14:17:32;3.80;99.90
18335;DHT22;9293;49.524;10.964;2022-11-20T14:20:07;3.80;99.90
18335;DHT22;9293;49.524;10.964;2022-11-20T14:22:39;3.80;99.90
18335;DHT22;9293;49.524;10.964;2022-11-20T14:27:55;3.90;99.90
18335;DHT22;9293;49.524;10.964;2022-11-20T14:30:26;4.00;99.90
18335;DHT22;9293;49.524;10.964;2022-11-20T14:33:00;4.00;99.90
18335;DHT22;9293;49.524;10.964;2022-11-20T14:35:34;4.00;99.90
18335;DHT22;9293;49.524;10.964;2022-11-20T14:38:03;4.00;99.90
18335;DHT22;9293;49.524;10.964;2022-11-20T14:40:33;4.00;99.90
18335;DHT22;9293;49.524;10.964;2022-11-20T14:43:24;3.90;99.90
18335;DHT22;9293;49.524;10.964;2022-11-20T14:45:58;3.90;99.90
18335;DHT22;9293;49.524;10.964;2022-11-20T14:48:34;3.90;99.90
18335;DHT22;9293;49.524;10.964;2022-11-20T14:51:34;3.90;99.90
18335;DHT22;9293;49.524;10.964;2022-11-20T14:54:14;3.90;99.90
18335;DHT22;9293;49.524;10.964;2022-11-20T14:56:56;3.90;99.90
18335;DHT22;9293;49.524;10.964;2022-11-20T14:59:26;3.90;99.90
18335;DHT22;9293;49.524;10.964;2022-11-20T15:01:57;3.90;99.90
18335;DHT22;9293;49.524;10.964;2022-11-20T15:04:25;3.90;99.90
18335;DHT22;9293;49.524;10.964;2022-11-20T15:06:56;3.80;99.90
18335;DHT22;9293;49.524;10.964;2022-11-20T15:09:25;3.80;99.90
18335;DHT22;9293;49.524;10.964;2022-11-20T15:11:58;3.80;99.90
18335;DHT22;9293;49.524;10.964;2022-11-20T15:14:28;3.80;99.90
18335;DHT22;9293;49.524;10.964;2022-11-20T15:16:57;3.80;99.90
18335;DHT22;9293;49.524;10.964;2022-11-20T15:19:26;3.80;99.90
18335;DHT22;9293;49.524;10.964;2022-11-20T15:21:54;3.80;99.90
18335;DHT22;9293;49.524;10.964;2022-11-20T15:24:22;3.80;99.90
18335;DHT22;9293;49.524;10.964;2022-11-20T15:26:51;3.90;99.90
18335;DHT22;9293;49.524;10.964;2022-11-20T15:29:19;3.90;99.90
18335;DHT22;9293;49.524;10.964;2022-11-20T15:31:49;3.90;99.90
18335;DHT22;9293;49.524;10.964;2022-11-20T15:34:18;3.90;99.90
18335;DHT22;9293;49.524;10.964;2022-11-20T15:36:47;3.80;99.90
18335;DHT22;9293;49.524;10.964;2022-11-20T15:39:15;3.90;99.90
18335;DHT22;9293;49.524;10.964;2022-11-20T15:41:43;3.90;99.90
18335;DHT22;9293;49.524;10.964;2022-11-20T15:44:11;3.90;99.90
18335;DHT22;9293;49.524;10.964;2022-11-20T15:46:41;3.90;99.90
18335;DHT22;9293;49.524;10.964;2022-11-20T15:49:13;3.90;99.90
18335;DHT22;9293;49.524;10.964;2022-11-20T15:51:44;4.00;99.90
18335;DHT22;9293;49.524;10.964;2022-11-20T15:54:19;4.00;99.90
18335;DHT22;9293;49.524;10.964;2022-11-20T15:56:49;4.00;99.90
18335;DHT22;9293;49.524;10.964;2022-11-20T15:59:20;4.00;99.90
18335;DHT22;9293;49.524;10.964;2022-11-20T16:01:47;4.00;99.90
18335;DHT22;9293;49.524;10.964;2022-11-20T16:04:16;4.00;99.90
18335;DHT22;9293;49.524;10.964;2022-11-20T16:06:44;4.00;99.90
18335;DHT22;9293;49.524;10.964;2022-11-20T16:09:12;4.00;99.90
18335;DHT22;9293;49.524;10.964;2022-11-20T16:11:40;4.00;99.90
18335;DHT22;9293;49.524;10.964;2022-11-20T16:14:10;3.90;99.90
18335;DHT22;9293;49.524;10.964;2022-11-20T16:16:57;3.90;99.90
18335;DHT22;9293;49.524;10.964;2022-11-20T16:19:25;3.80;99.90
18335;DHT22;9293;49.524;10.964;2022-11-20T16:21:52;3.80;99.90
18335;DHT22;9293;49.524;10.964;2022-11-20T16:24:28;3.80;99.90
18335;DHT22;9293;49.524;10.964;2022-11-20T16:26:56;3.80;99.90
18335;DHT22;9293;49.524;10.964;2022-11-20T16:29:24;3.90;99.90
18335;DHT22;9293;49.524;10.964;2022-11-20T16:31:52;3.90;99.90
18335;DHT22;9293;49.524;10.964;2022-11-20T16:34:20;3.90;99.90
18335;DHT22;9293;49.524;10.964;2022-11-20T16:36:48;3.90;99.90
18335;DHT22;9293;49.524;10.964;2022-11-20T16:39:16;3.90;99.90
18335;DHT22;9293;49.524;10.964;2022-11-20T16:41:49;3.90;99.90
18335;DHT22;9293;49.524;10.964;2022-11-20T16:44:17;3.90;99.90
18335;DHT22;9293;49.524;10.964;2022-11-20T16:46:45;3.90;99.90
18335;DHT22;9293;49.524;10.964;2022-11-20T16:49:13;3.90;99.90
18335;DHT22;9293;49.524;10.964;2022-11-20T16:51:41;3.90;99.90
18335;DHT22;9293;49.524;10.964;2022-11-20T16:54:10;3.90;99.90
18335;DHT22;9293;49.524;10.964;2022-11-20T16:56:45;3.90;99.90
18335;DHT22;9293;49.524;10.964;2022-11-20T16:59:14;3.90;99.90
18335;DHT22;9293;49.524;10.964;2022-11-20T17:01:42;3.90;99.90
18335;DHT22;9293;49.524;10.964;2022-11-20T17:04:10;3.90;99.90
18335;DHT22;9293;49.524;10.964;2022-11-20T17:06:41;3.90;99.90
18335;DHT22;9293;49.524;10.964;2022-11-20T17:09:11;3.90;99.90
18335;DHT22;9293;49.524;10.964;2022-11-20T17:11:40;3.90;99.90
18335;DHT22;9293;49.524;10.964;2022-11-20T17:14:10;3.90;99.90
18335;DHT22;9293;49.524;10.964;2022-11-20T17:16:38;3.90;99.90
18335;DHT22;9293;49.524;10.964;2022-11-20T17:19:06;3.90;99.90
18335;DHT22;9293;49.524;10.964;2022-11-20T17:21:34;3.90;99.90
18335;DHT22;9293;49.524;10.964;2022-11-20T17:24:05;3.90;99.90
18335;DHT22;9293;49.524;10.964;2022-11-20T17:26:34;3.80;99.90
18335;DHT22;9293;49.524;10.964;2022-11-20T17:29:05;3.80;99.90
18335;DHT22;9293;49.524;10.964;2022-11-20T17:31:36;3.70;99.90
18335;DHT22;9293;49.524;10.964;2022-11-20T17:34:12;3.70;99.90
18335;DHT22;9293;49.524;10.964;2022-11-20T17:36:41;3.60;99.90
18335;DHT22;9293;49.524;10.964;2022-11-20T17:39:15;3.60;99.90
18335;DHT22;9293;49.524;10.964;2022-11-20T17:41:43;3.50;99.90
18335;DHT22;9293;49.524;10.964;2022-11-20T17:44:12;3.50;99.90
18335;DHT22;9293;49.524;10.964;2022-11-20T17:46:40;3.50;99.90
18335;DHT22;9293;49.524;10.964;2022-11-20T17:49:08;3.50;99.90
18335;DHT22;9293;49.524;10.964;2022-11-20T17:51:36;3.50;99.90
18335;DHT22;9293;49.524;10.964;2022-11-20T17:54:04;3.50;99.90
18335;DHT22;9293;49.524;10.964;2022-11-20T17:56:34;3.50;99.90
18335;DHT22;9293;49.524;10.964;2022-11-20T17:59:21;3.50;99.90
18335;DHT22;9293;49.524;10.964;2022-11-20T18:01:49;3.50;99.90
18335;DHT22;9293;49.524;10.964;2022-11-20T18:04:17;3.50;99.90
18335;DHT22;9293;49.524;10.964;2022-11-20T18:06:45;3.50;99.90
18335;DHT22;9293;49.524;10.964;2022-11-20T18:09:13;3.50;99.90
18335;DHT22;9293;49.524;10.964;2022-11-20T18:11:42;3.60;99.90
18335;DHT22;9293;49.524;10.964;2022-11-20T18:14:13;3.60;99.90
18335;DHT22;9293;49.524;10.964;2022-11-20T18:17:21;3.50;99.90